Time;durP1;ratioP1;P1;durP2;ratioP2;P2;SDS_P1;SDS_P2;PMS_P1;PMS_P2;Temp;Humidity;BMP_temperature;BMP_pressure;BME280_temperature;BME280_humidity;BME280_pressure;Samples;Min_cycle;Max_cycle;Signal;HPM_P1;HPM_P2
2022/11/13 00:00:07;;;;;;;22.73;16.80;;;;;;;8.12;100.00;97551.28;5055381;28;20214;-50
2022/11/13 00:02:36;;;;;;;21.30;16.60;;;;;;;8.12;100.00;97553.91;5054937;28;20223;-51
2022/11/13 00:05:03;;;;;;;23.93;18.30;;;;;;;8.11;100.00;97554.88;5066367;28;20235;-52
2022/11/13 00:07:30;;;;;;;22.57;17.33;;;;;;;8.11;100.00;97549.63;5058516;28;20203;-52
2022/11/13 00:09:57;;;;;;;22.13;16.53;;;;;;;8.12;100.00;97551.28;5055636;28;20609;-51
2022/11/13 00:12:24;;;;;;;23.13;17.53;;;;;;;8.12;100.00;97562.66;5054470;28;20317;-52
2022/11/13 00:14:52;;;;;;;21.07;16.50;;;;;;;8.14;100.00;97560.78;5055139;28;20238;-51
2022/11/13 00:17:18;;;;;;;19.83;16.43;;;;;;;8.19;100.00;97555.16;5054958;28;20243;-52
2022/11/13 00:19:45;;;;;;;20.30;15.77;;;;;;;8.14;100.00;97547.59;5054579;28;20213;-52
2022/11/13 00:22:12;;;;;;;20.17;16.10;;;;;;;8.17;100.00;97546.53;5055093;28;20623;-50
2022/11/13 00:24:39;;;;;;;18.43;15.07;;;;;;;8.14;100.00;97538.84;5055492;28;20304;-51
2022/11/13 00:27:05;;;;;;;20.03;16.03;;;;;;;8.14;100.00;97534.44;5057146;28;20253;-51
2022/11/13 00:29:32;;;;;;;19.37;15.87;;;;;;;8.18;100.00;97535.06;5071754;28;20234;-52
2022/11/13 00:32:00;;;;;;;19.97;16.57;;;;;;;8.15;100.00;97532.66;5063276;28;20273;-55
2022/11/13 00:34:27;;;;;;;20.70;16.73;;;;;;;8.11;100.00;97532.03;5067867;28;20265;-52
2022/11/13 00:36:53;;;;;;;20.87;17.13;;;;;;;8.06;100.00;97533.25;5056713;28;20207;-51
2022/11/13 00:39:20;;;;;;;20.10;16.67;;;;;;;8.02;100.00;97520.31;5056743;28;20235;-54
2022/11/13 00:41:48;;;;;;;20.17;16.23;;;;;;;7.94;100.00;97522.63;5065492;28;20249;-51
2022/11/13 00:44:15;;;;;;;18.10;14.83;;;;;;;7.97;100.00;97517.13;5054540;28;20246;-52
2022/11/13 00:46:41;;;;;;;20.00;15.20;;;;;;;8.00;100.00;97516.09;5054642;28;20280;-52
2022/11/13 00:49:09;;;;;;;19.77;16.13;;;;;;;8.02;100.00;97508.94;5054270;28;20658;-51
2022/11/13 00:51:38;;;;;;;21.73;16.37;;;;;;;7.99;100.00;97510.00;5053835;28;20250;-52
2022/11/13 00:54:05;;;;;;;18.13;14.90;;;;;;;8.00;100.00;97514.31;5055209;28;20240;-52
2022/11/13 00:56:33;;;;;;;19.30;15.40;;;;;;;7.98;100.00;97510.94;5057768;28;20257;-52
2022/11/13 00:59:00;;;;;;;20.17;15.23;;;;;;;7.99;100.00;97504.72;5064391;28;20239;-51
2022/11/13 01:01:29;;;;;;;18.00;14.60;;;;;;;7.99;100.00;97499.47;5054800;28;20207;-52
2022/11/13 01:03:56;;;;;;;19.63;15.60;;;;;;;7.97;100.00;97496.06;5054316;28;20263;-53
2022/11/13 01:06:26;;;;;;;20.87;16.93;;;;;;;7.92;100.00;97503.47;5054906;28;20199;-50
2022/11/13 01:08:54;;;;;;;19.30;15.73;;;;;;;7.92;100.00;97495.56;5054496;28;20211;-52
2022/11/13 01:11:23;;;;;;;19.30;15.23;;;;;;;7.93;100.00;97488.50;5054433;28;20238;-50
2022/11/13 01:13:52;;;;;;;20.70;15.67;;;;;;;7.98;100.00;97492.50;5054178;28;20200;-54
2022/11/13 01:16:20;;;;;;;21.57;16.47;;;;;;;8.04;100.00;97483.34;5054695;28;20636;-51
2022/11/13 01:18:47;;;;;;;18.67;15.57;;;;;;;8.02;100.00;97483.44;5058229;28;20242;-51
2022/11/13 01:21:17;;;;;;;21.40;16.73;;;;;;;7.95;100.00;97476.91;5057949;28;20269;-50
2022/11/13 01:23:46;;;;;;;18.27;15.30;;;;;;;7.98;100.00;97481.97;5062788;28;20309;-52
2022/11/13 01:26:15;;;;;;;19.97;15.53;;;;;;;7.94;100.00;97475.22;5069693;28;20627;-53
2022/11/13 01:28:43;;;;;;;17.60;15.70;;;;;;;7.93;100.00;97465.66;5057774;28;20290;-51
2022/11/13 01:31:15;;;;;;;18.67;15.17;;;;;;;7.95;100.00;97466.38;5057472;28;20242;-50
2022/11/13 01:33:43;;;;;;;19.00;15.33;;;;;;;7.95;100.00;97465.53;5058050;28;20214;-53
2022/11/13 01:36:12;;;;;;;19.03;15.60;;;;;;;7.97;100.00;97467.09;5057690;28;20234;-51
2022/11/13 01:38:39;;;;;;;20.30;16.03;;;;;;;8.00;100.00;97468.69;5057965;28;20250;-50
2022/11/13 01:41:08;;;;;;;17.93;15.03;;;;;;;7.98;100.00;97465.31;5064501;28;20658;-53
2022/11/13 01:43:37;;;;;;;18.90;15.77;;;;;;;7.96;100.00;97459.31;5067416;28;20257;-52
2022/11/13 01:46:26;;;;;;;16.77;14.47;;;;;;;7.98;100.00;97455.63;5060040;28;20235;-52
2022/11/13 01:49:02;;;;;;;15.63;13.20;;;;;;;8.02;100.00;97451.81;5059995;28;20221;-51
2022/11/13 01:51:32;;;;;;;17.43;14.20;;;;;;;7.95;100.00;97450.56;5061213;28;20535;-53
2022/11/13 01:54:01;;;;;;;17.80;14.80;;;;;;;7.91;100.00;97442.97;5058835;28;20227;-52
2022/11/13 01:56:29;;;;;;;16.63;14.70;;;;;;;7.92;100.00;97445.53;5059471;28;20199;-53
2022/11/13 01:58:59;;;;;;;17.87;14.13;;;;;;;7.88;100.00;97436.16;5063574;28;20238;-52
2022/11/13 02:01:26;;;;;;;15.30;13.70;;;;;;;7.96;100.00;97430.34;5079811;28;20203;-51
2022/11/13 02:03:53;;;;;;;16.93;14.13;;;;;;;7.91;100.00;97435.94;5078035;28;20211;-53
2022/11/13 02:06:21;;;;;;;17.23;14.90;;;;;;;7.89;100.00;97432.56;5081834;28;20241;-56
2022/11/13 02:08:49;;;;;;;17.67;14.60;;;;;;;7.82;100.00;97430.47;5086059;28;20323;-52
2022/11/13 02:11:18;;;;;;;15.13;13.20;;;;;;;7.88;100.00;97424.78;5075084;28;20257;-52
2022/11/13 02:13:48;;;;;;;14.00;12.50;;;;;;;7.86;100.00;97424.91;5056902;28;20286;-51
2022/11/13 02:16:16;;;;;;;15.90;12.73;;;;;;;7.84;100.00;97426.78;5057503;28;20230;-51
2022/11/13 02:18:43;;;;;;;15.40;12.83;;;;;;;7.76;100.00;97412.47;5057077;28;20203;-52
2022/11/13 02:21:27;;;;;;;16.23;13.37;;;;;;;7.72;100.00;97413.63;5056800;28;20265;-53
2022/11/13 02:24:01;;;;;;;14.90;13.10;;;;;;;7.74;100.00;97404.66;5061604;28;20214;-52
2022/11/13 02:26:30;;;;;;;14.67;13.10;;;;;;;7.74;100.00;97404.66;5060743;28;20199;-52
2022/11/13 02:28:57;;;;;;;15.43;12.90;;;;;;;7.78;100.00;97400.88;5055969;28;20312;-52
2022/11/13 02:31:24;;;;;;;15.10;13.10;;;;;;;7.75;100.00;97400.25;5065752;28;20288;-52
2022/11/13 02:33:53;;;;;;;15.70;13.43;;;;;;;7.78;100.00;97400.88;5060125;28;20282;-51
2022/11/13 02:36:22;;;;;;;15.83;13.10;;;;;;;7.86;100.00;97402.97;5056602;28;20643;-52
2022/11/13 02:38:52;;;;;;;14.47;12.90;;;;;;;7.83;100.00;97393.47;5056571;28;20210;-52
2022/11/13 02:41:19;;;;;;;15.80;13.23;;;;;;;7.79;100.00;97389.41;5063125;28;20237;-51
2022/11/13 02:43:47;;;;;;;14.83;13.30;;;;;;;7.81;100.00;97390.13;5058682;28;20339;-51
2022/11/13 02:46:14;;;;;;;15.93;12.53;;;;;;;7.85;100.00;97381.06;5061977;28;20238;-52
2022/11/13 02:48:41;;;;;;;13.80;12.37;;;;;;;7.84;100.00;97374.09;5056568;28;20600;-52
2022/11/13 02:51:09;;;;;;;15.30;13.70;;;;;;;7.85;100.00;97370.53;5056849;28;20238;-52
2022/11/13 02:53:36;;;;;;;14.53;12.27;;;;;;;7.85;100.00;97373.16;5059449;28;20235;-51
2022/11/13 02:56:05;;;;;;;15.70;12.63;;;;;;;7.88;100.00;97377.38;5058017;28;20249;-52
2022/11/13 02:58:32;;;;;;;13.50;11.80;;;;;;;7.87;100.00;97373.03;5057758;28;20214;-52
2022/11/13 03:01:06;;;;;;;12.47;11.17;;;;;;;7.90;100.00;97368.41;5057360;28;20269;-52
2022/11/13 03:03:34;;;;;;;12.50;10.87;;;;;;;7.92;100.00;97369.16;5056566;28;20222;-52
2022/11/13 03:06:01;;;;;;;12.80;11.37;;;;;;;7.87;100.00;97367.78;5057108;28;20533;-50
2022/11/13 03:08:29;;;;;;;12.20;10.77;;;;;;;7.87;100.00;97366.00;5056712;28;20250;-52
2022/11/13 03:10:56;;;;;;;13.47;11.20;;;;;;;7.89;100.00;97364.09;5056337;28;20298;-52
2022/11/13 03:13:23;;;;;;;12.37;11.17;;;;;;;7.85;100.00;97364.44;5056134;28;20231;-51
2022/11/13 03:15:50;;;;;;;11.60;10.33;;;;;;;7.87;100.00;97358.09;5055785;28;20295;-52
2022/11/13 03:18:18;;;;;;;12.23;11.03;;;;;;;7.82;100.00;97354.09;5056257;28;20275;-51
2022/11/13 03:20:44;;;;;;;12.63;11.33;;;;;;;7.72;100.00;97353.91;5055969;28;20238;-52
2022/11/13 03:23:11;;;;;;;12.40;10.47;;;;;;;7.76;100.00;97359.81;5064576;28;20604;-51
2022/11/13 03:25:38;;;;;;;10.83;9.73;;;;;;;7.78;100.00;97358.75;5059930;28;20658;-53
2022/11/13 03:28:05;;;;;;;11.53;10.33;;;;;;;7.76;100.00;97354.56;5056072;28;20206;-51
2022/11/13 03:30:32;;;;;;;11.97;10.77;;;;;;;7.75;100.00;97358.97;5065843;28;20315;-53
2022/11/13 03:32:59;;;;;;;11.43;10.23;;;;;;;7.74;100.00;97349.38;5055141;28;20234;-53
2022/11/13 03:35:28;;;;;;;11.20;10.10;;;;;;;7.76;100.00;97352.75;5055693;28;20249;-52
2022/11/13 03:37:55;;;;;;;11.73;10.23;;;;;;;7.75;100.00;97353.72;5055398;28;20207;-51
2022/11/13 03:40:21;;;;;;;11.83;10.63;;;;;;;7.78;100.00;97350.00;5055618;28;20563;-53
2022/11/13 03:42:50;;;;;;;11.73;10.50;;;;;;;7.81;100.00;97349.78;5064463;28;20223;-51
2022/11/13 03:45:18;;;;;;;12.20;10.93;;;;;;;7.82;100.00;97349.69;5055938;28;20226;-52
2022/11/13 03:47:45;;;;;;;11.10;9.97;;;;;;;7.79;100.00;97349.06;5055513;28;20242;-52
2022/11/13 03:50:11;;;;;;;12.07;10.87;;;;;;;7.76;100.00;97350.09;5055477;28;20206;-51
2022/11/13 03:52:39;;;;;;;12.67;11.07;;;;;;;7.76;100.00;97344.03;5054889;28;20305;-51
2022/11/13 03:55:06;;;;;;;11.53;10.33;;;;;;;7.73;100.00;97345.06;5055422;28;20396;-51
2022/11/13 03:57:33;;;;;;;11.97;10.77;;;;;;;7.69;100.00;97343.59;5055093;28;20679;-52
2022/11/13 04:00:00;;;;;;;12.33;11.07;;;;;;;7.74;100.00;97351.16;5054959;28;20586;-50
2022/11/13 04:02:28;;;;;;;11.63;10.40;;;;;;;7.66;100.00;97343.81;5055219;28;20213;-52
2022/11/13 04:04:54;;;;;;;12.30;11.00;;;;;;;7.70;100.00;97339.16;5055658;28;20242;-52
2022/11/13 04:07:21;;;;;;;13.03;11.00;;;;;;;7.72;100.00;97327.56;5054791;28;20203;-53
2022/11/13 04:09:49;;;;;;;12.27;10.97;;;;;;;7.74;100.00;97319.56;5055165;28;20207;-53
2022/11/13 04:12:15;;;;;;;10.90;9.80;;;;;;;7.72;100.00;97316.22;5055197;28;20246;-53
2022/11/13 04:14:42;;;;;;;12.60;11.10;;;;;;;7.71;100.00;97320.66;5069239;28;20286;-52
2022/11/13 04:17:10;;;;;;;11.67;10.47;;;;;;;7.72;100.00;97318.84;5062231;28;20207;-52
2022/11/13 04:19:37;;;;;;;12.00;10.70;;;;;;;7.72;100.00;97322.31;5061307;28;20588;-51
2022/11/13 04:22:03;;;;;;;12.47;10.10;;;;;;;7.70;100.00;97307.56;5055115;28;20250;-53
2022/11/13 04:24:30;;;;;;;12.57;10.53;;;;;;;7.65;100.00;97313.16;5059229;28;20318;-51
2022/11/13 04:27:01;;;;;;;12.53;10.97;;;;;;;7.68;100.00;97312.97;5055315;28;20261;-53
2022/11/13 04:29:28;;;;;;;10.80;9.70;;;;;;;7.72;100.00;97301.25;5069237;28;20163;-54
2022/11/13 04:31:54;;;;;;;11.20;10.10;;;;;;;7.73;100.00;97297.66;5073880;28;20237;-51
2022/11/13 04:34:21;;;;;;;11.53;10.33;;;;;;;7.60;100.00;97296.03;5054337;28;20242;-52
2022/11/13 04:36:48;;;;;;;12.63;10.50;;;;;;;7.64;100.00;97300.13;5054083;28;20253;-52
2022/11/13 04:39:14;;;;;;;14.20;10.10;;;;;;;7.64;100.00;97295.72;5053911;28;20286;-53
2022/11/13 04:44:26;;;;;;;10.97;9.70;;;;;;;7.63;100.00;97294.00;5053938;28;20222;-52
2022/11/13 04:46:55;;;;;;;9.70;8.43;;;;;;;7.64;100.00;97287.81;5054309;28;20207;-52
2022/11/13 04:49:22;;;;;;;9.73;8.70;;;;;;;7.63;100.00;97286.13;5055299;28;20649;-52
2022/11/13 04:51:49;;;;;;;9.20;8.30;;;;;;;7.67;100.00;97297.28;5055571;28;20694;-53
2022/11/13 04:54:16;;;;;;;9.43;8.53;;;;;;;7.65;100.00;97288.66;5058070;28;20253;-51
2022/11/13 04:56:42;;;;;;;9.67;8.67;;;;;;;7.63;100.00;97286.13;5063590;28;20248;-52
2022/11/13 04:59:09;;;;;;;9.90;8.90;;;;;;;7.64;100.00;97286.97;5067390;28;20299;-54
2022/11/13 05:01:38;;;;;;;10.00;9.00;;;;;;;7.63;100.00;97286.13;5058585;28;20203;-53
2022/11/13 05:04:05;;;;;;;10.17;8.27;;;;;;;7.65;100.00;97281.56;5073292;28;20257;-52
2022/11/13 05:06:32;;;;;;;10.83;8.80;;;;;;;7.68;100.00;97286.66;5059356;28;20211;-51
2022/11/13 05:08:59;;;;;;;9.53;8.63;;;;;;;7.60;100.00;97286.34;5058367;28;20253;-53
2022/11/13 05:11:25;;;;;;;9.57;8.40;;;;;;;7.62;100.00;97284.44;5057972;28;20238;-52
2022/11/13 05:13:52;;;;;;;10.17;9.17;;;;;;;7.56;100.00;97276.97;5058772;28;20289;-52
2022/11/13 05:16:20;;;;;;;9.10;8.20;;;;;;;7.63;100.00;97288.75;5058556;28;20286;-51
2022/11/13 05:18:48;;;;;;;10.03;9.03;;;;;;;7.60;100.00;97291.59;5058110;28;20713;-52
2022/11/13 05:21:15;;;;;;;9.07;8.17;;;;;;;7.58;100.00;97288.22;5058147;28;20239;-52
2022/11/13 05:23:42;;;;;;;9.80;8.80;;;;;;;7.58;100.00;97282.97;5058309;28;20222;-53
2022/11/13 05:26:12;;;;;;;9.70;8.73;;;;;;;7.57;100.00;97281.31;5058244;28;20293;-52
2022/11/13 05:28:39;;;;;;;9.50;8.50;;;;;;;7.62;100.00;97273.91;5058317;28;20257;-53
2022/11/13 05:31:07;;;;;;;9.03;8.13;;;;;;;7.62;100.00;97268.63;5067086;28;20230;-53
2022/11/13 05:33:35;;;;;;;9.47;8.57;;;;;;;7.59;100.00;97260.97;5058191;28;20245;-51
2022/11/13 05:36:05;;;;;;;9.60;8.67;;;;;;;7.62;100.00;97260.75;5058350;28;20261;-51
2022/11/13 05:38:32;;;;;;;9.23;8.33;;;;;;;7.61;100.00;97256.44;5057583;28;20207;-53
2022/11/13 05:41:03;;;;;;;10.60;8.43;;;;;;;7.62;100.00;97252.84;5062100;28;20337;-51
2022/11/13 05:43:29;;;;;;;10.10;8.67;;;;;;;7.61;100.00;97247.72;5061413;28;20368;-51
2022/11/13 05:46:01;;;;;;;10.67;9.10;;;;;;;7.60;100.00;97238.97;5057893;28;20239;-52
2022/11/13 05:48:28;;;;;;;9.20;7.93;;;;;;;7.64;100.00;97250.13;5057913;28;20265;-51
2022/11/13 05:51:01;;;;;;;9.60;8.63;;;;;;;7.62;100.00;97242.31;5058108;28;20215;-52
2022/11/13 05:53:29;;;;;;;9.23;8.03;;;;;;;7.64;100.00;97248.31;5061528;28;20201;-51
2022/11/13 05:56:00;;;;;;;9.60;8.60;;;;;;;7.66;100.00;97243.78;5066644;28;20242;-51
2022/11/13 05:58:27;;;;;;;8.90;8.00;;;;;;;7.65;100.00;97233.38;5058231;28;20207;-53
2022/11/13 06:00:54;;;;;;;10.07;9.07;;;;;;;7.65;100.00;97225.47;5057582;28;20268;-52
2022/11/13 06:03:22;;;;;;;10.33;8.53;;;;;;;7.65;100.00;97215.75;5057602;28;20286;-52
2022/11/13 06:05:48;;;;;;;9.30;8.40;;;;;;;7.61;100.00;97214.34;5058199;28;20203;-53
2022/11/13 06:08:15;;;;;;;7.80;7.10;;;;;;;7.63;100.00;97220.31;5062683;28;20573;-53
2022/11/13 06:10:44;;;;;;;7.20;6.30;;;;;;;7.61;100.00;97213.50;5058021;28;20601;-53
2022/11/13 06:13:10;;;;;;;6.97;6.30;;;;;;;7.63;100.00;97214.19;5059073;28;20222;-52
2022/11/13 06:15:37;;;;;;;7.03;6.43;;;;;;;7.54;100.00;97213.09;5059744;28;20243;-54
2022/11/13 06:18:06;;;;;;;6.63;5.83;;;;;;;7.55;100.00;97209.50;5059462;28;20264;-55
2022/11/13 06:20:34;;;;;;;6.33;5.73;;;;;;;7.57;100.00;97215.50;5059190;28;20207;-52
2022/11/13 06:23:01;;;;;;;7.23;5.67;;;;;;;7.58;100.00;97217.16;5058756;28;20265;-52
2022/11/13 06:25:28;;;;;;;6.47;5.87;;;;;;;7.56;100.00;97218.22;5057414;28;20269;-53
2022/11/13 06:27:56;;;;;;;6.80;6.20;;;;;;;7.56;100.00;97215.59;5057153;28;20207;-53
2022/11/13 06:30:24;;;;;;;6.40;5.83;;;;;;;7.56;100.00;97216.44;5057465;28;20230;-52
2022/11/13 06:32:52;;;;;;;6.50;5.90;;;;;;;7.59;100.00;97213.59;5056204;28;20239;-51
2022/11/13 06:35:19;;;;;;;7.43;6.60;;;;;;;7.57;100.00;97202.34;5056658;28;20289;-53
2022/11/13 06:37:46;;;;;;;7.33;6.63;;;;;;;7.56;100.00;97198.03;5056622;28;20234;-53
2022/11/13 06:40:13;;;;;;;7.70;6.90;;;;;;;7.52;100.00;97199.19;5057116;28;20280;-52
2022/11/13 06:42:41;;;;;;;8.77;7.87;;;;;;;7.49;100.00;97199.41;5064264;28;20234;-53
2022/11/13 06:45:11;;;;;;;7.83;7.13;;;;;;;7.50;100.00;97195.84;5056442;28;20310;-52
2022/11/13 06:47:38;;;;;;;8.73;7.90;;;;;;;7.47;100.00;97196.06;5056547;28;20288;-53
2022/11/13 06:50:06;;;;;;;9.13;8.23;;;;;;;7.50;100.00;97201.94;5055983;28;20245;-52
2022/11/13 06:52:34;;;;;;;9.47;8.47;;;;;;;7.52;100.00;97199.19;5055322;28;20230;-52
2022/11/13 06:55:00;;;;;;;9.67;8.70;;;;;;;7.54;100.00;97207.84;5055191;28;20670;-53
2022/11/13 06:57:27;;;;;;;9.70;8.80;;;;;;;7.55;100.00;97204.22;5056005;28;20243;-52
2022/11/13 06:59:54;;;;;;;8.93;8.03;;;;;;;7.58;100.00;97201.38;5055421;28;20286;-52
2022/11/13 07:02:22;;;;;;;8.37;7.57;;;;;;;7.59;100.00;97200.44;5055550;28;20206;-54
2022/11/13 07:04:49;;;;;;;7.97;7.17;;;;;;;7.57;100.00;97201.50;5075618;28;20218;-54
2022/11/13 07:07:16;;;;;;;9.00;8.10;;;;;;;7.56;100.00;97205.91;5065836;28;20210;-52
2022/11/13 07:09:44;;;;;;;9.67;8.67;;;;;;;7.63;100.00;97209.78;5057161;28;20264;-51
2022/11/13 07:12:11;;;;;;;8.17;7.37;;;;;;;7.61;100.00;97210.84;5056530;28;20245;-52
2022/11/13 07:14:39;;;;;;;9.10;7.57;;;;;;;7.60;100.00;97212.66;5056125;28;20252;-51
2022/11/13 07:17:06;;;;;;;8.40;7.47;;;;;;;7.65;100.00;97215.75;5056695;28;20696;-52
2022/11/13 07:19:34;;;;;;;7.67;6.97;;;;;;;7.64;100.00;97210.63;5069616;28;20290;-53
2022/11/13 07:22:01;;;;;;;7.83;7.13;;;;;;;7.58;100.00;97217.16;5068802;28;20203;-52
2022/11/13 07:24:28;;;;;;;7.47;6.77;;;;;;;7.66;100.00;97209.56;5060685;28;20281;-53
2022/11/13 07:26:56;;;;;;;7.67;6.97;;;;;;;7.66;100.00;97206.94;5056677;28;20203;-53
2022/11/13 07:29:22;;;;;;;7.87;7.17;;;;;;;7.67;100.00;97199.88;5058582;28;20678;-52
2022/11/13 07:31:49;;;;;;;8.30;7.50;;;;;;;7.63;100.00;97191.38;5071772;28;20325;-52
2022/11/13 07:34:16;;;;;;;8.40;7.60;;;;;;;7.65;100.00;97194.72;5057791;28;20202;-52
2022/11/13 07:36:44;;;;;;;7.27;6.60;;;;;;;7.65;100.00;97188.63;5057982;28;20256;-53
2022/11/13 07:39:11;;;;;;;6.80;6.20;;;;;;;7.67;100.00;97179.66;5056643;28;20240;-52
2022/11/13 07:41:38;;;;;;;7.20;6.60;;;;;;;7.65;100.00;97184.19;5065366;28;20234;-53
2022/11/13 07:44:05;;;;;;;7.63;6.93;;;;;;;7.67;100.00;97174.41;5057458;28;20238;-52
2022/11/13 07:46:31;;;;;;;7.07;6.10;;;;;;;7.67;100.00;97177.03;5056186;28;20211;-51
2022/11/13 07:48:58;;;;;;;7.00;6.33;;;;;;;7.70;100.00;97168.06;5055887;28;20218;-52
2022/11/13 07:51:25;;;;;;;6.50;5.90;;;;;;;7.62;100.00;97173.88;5057146;28;20557;-54
2022/11/13 07:53:53;;;;;;;6.43;5.83;;;;;;;7.65;100.00;97162.31;5058195;28;20698;-53
2022/11/13 07:56:21;;;;;;;7.03;6.30;;;;;;;7.61;100.00;97166.97;5062456;28;20613;-52
2022/11/13 07:58:48;;;;;;;6.80;6.20;;;;;;;7.63;100.00;97165.03;5056081;28;20210;-54
2022/11/13 08:01:17;;;;;;;7.17;6.47;;;;;;;7.56;100.00;97162.97;5057596;28;20570;-52
2022/11/13 08:03:44;;;;;;;6.97;6.37;;;;;;;7.58;100.00;97156.63;5064583;28;20607;-51
2022/11/13 08:06:10;;;;;;;6.63;5.93;;;;;;;7.58;100.00;97161.06;5055554;28;20273;-51
2022/11/13 08:08:37;;;;;;;7.20;6.60;;;;;;;7.59;100.00;97160.94;5064196;28;20222;-52
2022/11/13 08:11:09;;;;;;;6.83;6.23;;;;;;;7.62;100.00;97152.81;5055365;28;20231;-51
2022/11/13 08:13:39;;;;;;;7.20;6.50;;;;;;;7.65;100.00;97163.13;5055744;28;20202;-52
2022/11/13 08:16:06;;;;;;;7.63;6.90;;;;;;;7.65;100.00;97163.13;5058292;28;20211;-53
2022/11/13 08:18:33;;;;;;;7.20;6.60;;;;;;;7.60;100.00;97160.00;5060504;28;20237;-53
2022/11/13 08:21:02;;;;;;;6.83;6.23;;;;;;;7.62;100.00;97158.09;5058392;28;20199;-51
2022/11/13 08:23:28;;;;;;;6.60;6.00;;;;;;;7.64;100.00;97163.25;5057668;28;20211;-52
2022/11/13 08:25:55;;;;;;;6.87;6.27;;;;;;;7.64;100.00;97164.09;5054405;28;20254;-53
2022/11/13 08:28:24;;;;;;;6.60;6.10;;;;;;;7.66;100.00;97161.34;5057984;28;20286;-53
2022/11/13 08:30:51;;;;;;;6.50;5.90;;;;;;;7.65;100.00;97168.38;5068006;28;20275;-53
2022/11/13 08:33:17;;;;;;;8.30;7.03;;;;;;;7.64;100.00;97169.34;5058011;28;20266;-52
2022/11/13 08:35:52;;;;;;;6.63;6.03;;;;;;;7.67;100.00;97161.22;5064863;28;20237;-53
2022/11/13 08:38:19;;;;;;;7.67;6.93;;;;;;;7.70;100.00;97163.63;5065892;28;20275;-51
2022/11/13 08:40:46;;;;;;;8.33;7.53;;;;;;;7.67;100.00;97166.50;5062368;28;20235;-53
2022/11/13 08:43:12;;;;;;;8.33;7.53;;;;;;;7.70;100.00;97168.91;5067895;28;20240;-52
2022/11/13 08:45:41;;;;;;;8.37;7.10;;;;;;;7.67;100.00;97166.50;5070687;28;20262;-54
2022/11/13 08:48:08;;;;;;;8.57;7.77;;;;;;;7.65;100.00;97173.66;5076361;28;20236;-53
2022/11/13 08:50:35;;;;;;;8.30;7.50;;;;;;;7.70;100.00;97163.63;5061710;28;20203;-54
2022/11/13 08:53:02;;;;;;;8.17;7.30;;;;;;;7.68;100.00;97162.91;5062734;28;20231;-53
2022/11/13 08:55:29;;;;;;;10.10;8.40;;;;;;;7.67;100.00;97148.06;5067896;28;20202;-54
2022/11/13 08:58:00;;;;;;;7.37;6.73;;;;;;;7.71;100.00;97139.00;5067339;28;20203;-52
2022/11/13 09:00:27;;;;;;;7.10;6.40;;;;;;;7.69;100.00;97133.00;5081125;28;20203;-54
2022/11/13 09:02:56;;;;;;;6.67;5.90;;;;;;;7.71;100.00;97139.00;5067826;28;20234;-52
2022/11/13 09:05:24;;;;;;;7.07;6.33;;;;;;;7.73;100.00;97129.19;5069883;28;20226;-53
2022/11/13 09:07:52;;;;;;;7.53;6.73;;;;;;;7.72;100.00;97130.13;5066993;28;20239;-51
2022/11/13 09:10:18;;;;;;;8.70;6.90;;;;;;;7.68;100.00;97126.06;5058689;28;20226;-52
2022/11/13 09:12:45;;;;;;;7.83;6.67;;;;;;;7.69;100.00;97132.16;5060685;28;20687;-52
2022/11/13 09:15:12;;;;;;;7.10;6.40;;;;;;;7.66;100.00;97117.44;5068546;28;20238;-54
2022/11/13 09:17:39;;;;;;;6.93;6.33;;;;;;;7.68;100.00;97105.00;5074003;28;20647;-51
2022/11/13 09:20:08;;;;;;;7.70;7.00;;;;;;;7.60;100.00;97094.19;5058259;28;20239;-51
2022/11/13 09:22:35;;;;;;;7.33;6.00;;;;;;;7.66;100.00;97093.75;5070298;28;20693;-52
2022/11/13 09:25:02;;;;;;;6.10;5.53;;;;;;;7.67;100.00;97087.53;5063062;28;20310;-52
2022/11/13 09:27:30;;;;;;;6.47;5.87;;;;;;;7.60;100.00;97088.94;5058114;28;20246;-54
2022/11/13 09:29:57;;;;;;;7.63;6.90;;;;;;;7.61;100.00;97097.69;5070979;28;20194;-52
2022/11/13 09:32:24;;;;;;;7.33;6.47;;;;;;;7.63;100.00;97117.66;5092539;28;20239;-54
2022/11/13 09:34:51;;;;;;;7.37;6.67;;;;;;;7.66;100.00;97101.63;5079203;28;20207;-52
2022/11/13 09:37:21;;;;;;;7.30;6.60;;;;;;;7.69;100.00;97106.66;5066318;28;20253;-53
2022/11/13 09:39:48;;;;;;;8.10;7.30;;;;;;;7.73;100.00;97112.53;5058938;28;20207;-54
2022/11/13 09:42:18;;;;;;;7.93;7.13;;;;;;;7.75;100.00;97115.91;5066509;28;20235;-54
2022/11/13 09:44:47;;;;;;;7.73;6.90;;;;;;;7.77;100.00;97111.38;5058589;28;20309;-52
2022/11/13 09:47:18;;;;;;;7.53;6.80;;;;;;;7.77;100.00;97109.56;5071125;28;20207;-52
2022/11/13 09:49:47;;;;;;;8.50;7.60;;;;;;;7.83;100.00;97103.03;5057422;28;20207;-51
2022/11/13 09:52:16;;;;;;;7.73;6.93;;;;;;;7.85;100.00;97104.59;5069368;28;20692;-54
2022/11/13 09:54:45;;;;;;;7.97;7.00;;;;;;;7.87;100.00;97092.13;5065026;28;20206;-53
2022/11/13 09:57:19;;;;;;;7.77;6.97;;;;;;;7.88;100.00;97080.66;5057397;28;20294;-52
2022/11/13 09:59:51;;;;;;;7.80;6.90;;;;;;;7.92;100.00;97086.53;5071115;28;20199;-51
2022/11/13 10:02:23;;;;;;;7.77;6.97;;;;;;;7.91;100.00;97085.69;5068039;28;20234;-52
2022/11/13 10:04:57;;;;;;;8.67;7.67;;;;;;;7.88;100.00;97096.44;5058472;28;20265;-53
2022/11/13 10:07:33;;;;;;;7.73;6.93;;;;;;;7.85;100.00;97101.09;5064673;28;20255;-53
2022/11/13 10:10:16;;;;;;;8.60;7.70;;;;;;;7.78;100.00;97116.53;5057126;28;20663;-52
2022/11/13 10:12:45;;;;;;;8.13;7.33;;;;;;;7.83;100.00;97103.03;5072816;28;20202;-53
2022/11/13 10:15:14;;;;;;;8.43;7.53;;;;;;;7.90;100.00;97099.78;5067110;28;20290;-54
2022/11/13 10:17:45;;;;;;;8.23;7.50;;;;;;;7.91;100.00;97098.84;5056419;28;20518;-52
2022/11/13 10:20:15;;;;;;;8.47;7.50;;;;;;;7.90;100.00;97088.44;5057018;28;20250;-52
2022/11/13 10:22:45;;;;;;;9.00;7.77;;;;;;;7.88;100.00;97099.09;5055919;28;20233;-50
2022/11/13 10:25:17;;;;;;;7.83;7.07;;;;;;;7.94;100.00;97082.81;5061372;28;20670;-53
2022/11/13 10:27:44;;;;;;;9.37;7.60;;;;;;;7.98;100.00;97075.53;5056723;28;20206;-52
2022/11/13 10:30:15;;;;;;;9.00;7.60;;;;;;;7.95;100.00;97066.06;5066415;28;20295;-51
2022/11/13 10:32:44;;;;;;;8.30;7.27;;;;;;;7.94;100.00;97068.81;5056540;28;20245;-53
2022/11/13 10:35:37;;;;;;;8.93;8.03;;;;;;;7.97;100.00;97064.13;5056344;28;20693;-53
2022/11/13 10:38:06;;;;;;;8.33;7.53;;;;;;;7.97;100.00;97058.88;5056259;28;20547;-51
2022/11/13 10:40:36;;;;;;;9.80;8.60;;;;;;;7.99;100.00;97058.78;5056951;28;20241;-51
2022/11/13 10:43:14;;;;;;;9.23;8.30;;;;;;;7.96;100.00;97046.69;5064370;28;20599;-53
2022/11/13 10:45:41;;;;;;;10.00;9.03;;;;;;;8.00;100.00;97048.13;5056121;28;20221;-53
2022/11/13 10:48:19;;;;;;;9.53;8.57;;;;;;;8.03;100.00;97044.41;5056809;28;20594;-53
2022/11/13 10:50:53;;;;;;;10.93;8.70;;;;;;;8.04;100.00;97045.25;5060615;28;20280;-52
2022/11/13 10:53:20;;;;;;;9.93;8.87;;;;;;;8.03;100.00;97041.78;5059646;28;20246;-52
2022/11/13 10:55:53;;;;;;;9.80;8.80;;;;;;;8.08;100.00;97033.53;5056525;28;20245;-52
2022/11/13 10:58:21;;;;;;;10.23;9.17;;;;;;;8.01;100.00;97046.31;5056174;28;20695;-51
2022/11/13 11:00:48;;;;;;;10.17;9.17;;;;;;;8.08;100.00;97039.63;5056268;28;20234;-53
2022/11/13 11:03:17;;;;;;;9.40;8.40;;;;;;;8.16;100.00;97039.03;5055572;28;20199;-51
2022/11/13 11:05:54;;;;;;;9.97;8.33;;;;;;;8.21;100.00;97040.38;5055536;28;20226;-53
2022/11/13 11:08:25;;;;;;;8.67;7.87;;;;;;;8.28;100.00;97046.00;5055366;28;20242;-52
2022/11/13 11:13:44;;;;;;;10.53;9.07;;;;;;;8.34;100.00;97045.53;5055788;28;20536;-53
2022/11/13 11:16:14;;;;;;;10.37;9.27;;;;;;;8.28;100.00;97053.91;5056233;28;20203;-53
2022/11/13 11:18:43;;;;;;;12.33;9.77;;;;;;;8.30;100.00;97049.38;5067654;28;20207;-51
2022/11/13 11:21:14;;;;;;;8.87;7.97;;;;;;;8.34;100.00;97040.28;5056072;28;20211;-51
2022/11/13 11:23:43;;;;;;;10.50;9.33;;;;;;;8.35;100.00;97039.31;5060016;28;20234;-52
2022/11/13 11:26:14;;;;;;;10.43;9.40;;;;;;;8.35;100.00;97041.97;5056192;28;20622;-53
2022/11/13 11:28:46;;;;;;;9.60;8.60;;;;;;;8.35;100.00;97021.72;5056844;28;20218;-52
2022/11/13 11:31:19;;;;;;;9.40;8.50;;;;;;;8.39;100.00;97017.91;5067217;28;20337;-51
2022/11/13 11:33:51;;;;;;;8.77;7.97;;;;;;;8.42;100.00;97003.63;5055676;28;20248;-51
2022/11/13 11:36:25;;;;;;;10.13;8.07;;;;;;;8.41;100.00;96999.31;5063003;28;20243;-51